Harvey, Illinois
Current Conditions -  °F | °C
As of 7:35 PM on Monday 24 Nov 2014 (Local Time) from KIGQ Reporting Station
Overcast Overcast  
Wind Chill: 16°   Ceiling: 1400
Heat Index: 29°   Visibility: 10mi
Dew Point: 25°   Wind: 21mph
Humidity: 85%   Direction: 250°WSW
Pressure: 29.73"   Gusts: 31mph
Location:  41.61°N, 87.64°W
Report Text: KIGQ 250135Z AUTO 25018G27KT 10SM OVC014 M02/M04 A2973 RMK AO2 T10171039
Loading
Personal Weather Stations






























Interactive Weather Map New forecast layout! Learn more

10-Day Weather Forecast

Advertisements
Track Severe Weather on mobile